Time,TemperatureF,DewpointF,PressureIn,WindDirection,WindDirectionDegrees,WindSpeedMPH,WindSpeedGustMPH,Humidity,HourlyPrecipIn,Conditions,Clouds,dailyrainin,SolarRadiationWatts/m^2,SoftwareType,DateUTC
2017-02-23 00:01:00,47.5,40.0,29.72,NNE,26,9.2,9.2,75,0.00,OVC,SKC,0.00,0.0,WeatherDisplay:10.37,2017-02-23 06:01:00,
2017-02-23 00:07:00,47.5,40.0,29.72,NE,38,9.2,9.2,75,0.00,OVC,SKC,0.00,0.0,WeatherDisplay:10.37,2017-02-23 06:07:00,
2017-02-23 00:12:00,47.3,39.8,29.72,NE,52,7.4,7.4,75,0.00,OVC,SKC,0.00,0.0,WeatherDisplay:10.37,2017-02-23 06:12:00,
2017-02-23 00:17:00,47.1,39.9,29.72,NE,34,9.2,9.2,76,0.00,OVC,SKC,0.00,0.0,WeatherDisplay:10.37,2017-02-23 06:17:00,
2017-02-23 00:22:00,47.2,40.0,29.72,NNE,23,10.6,10.6,76,0.00,OVC,SKC,0.00,0.0,WeatherDisplay:10.37,2017-02-23 06:22:00,
2017-02-23 00:27:00,47.4,40.2,29.72,NE,37,15.0,15.0,76,0.00,OVC,SKC,0.00,0.0,WeatherDisplay:10.37,2017-02-23 06:27:00,
2017-02-23 00:32:00,47.5,40.0,29.72,NNE,25,11.7,11.7,75,0.00,OVC,SKC,0.00,0.0,WeatherDisplay:10.37,2017-02-23 06:32:00,
2017-02-23 00:37:00,47.4,39.9,29.72,NNE,33,9.2,9.2,75,0.00,OVC,SKC,0.00,0.0,WeatherDisplay:10.37,2017-02-23 06:37:00,
2017-02-23 00:42:00,47.2,40.0,29.72,NNE,32,13.8,13.8,76,0.00,OVC,SKC,0.00,0.0,WeatherDisplay:10.37,2017-02-23 06:42:00,
2017-02-23 00:47:00,47.1,39.9,29.71,NE,37,10.4,10.4,76,0.00,OVC,SKC,0.00,0.0,WeatherDisplay:10.37,2017-02-23 06:47:00,
2017-02-23 00:52:00,46.8,40.0,29.72,NNE,25,9.2,9.2,77,0.00,OVC,SKC,0.00,0.0,WeatherDisplay:10.37,2017-02-23 06:52:00,
2017-02-23 00:57:00,46.5,39.7,29.72,NE,55,9.2,9.2,77,0.00,OVC,SKC,0.00,0.0,WeatherDisplay:10.37,2017-02-23 06:57:00,
2017-02-23 01:02:00,46.2,39.7,29.71,North,11,10.6,10.6,78,0.00,OVC,SKC,0.00,0.0,WeatherDisplay:10.37,2017-02-23 07:02:00,
2017-02-23 01:07:00,45.9,39.4,29.71,NE,41,7.4,7.4,78,0.00,OVC,SKC,0.00,0.0,WeatherDisplay:10.37,2017-02-23 07:07:00,
2017-02-23 01:12:00,45.6,39.5,29.72,NNE,16,6.9,6.9,79,0.00,OVC,SKC,0.00,0.0,WeatherDisplay:10.37,2017-02-23 07:12:00,
2017-02-23 01:17:00,45.3,39.2,29.72,NE,41,5.3,5.3,79,0.00,OVC,SKC,0.00,0.0,WeatherDisplay:10.37,2017-02-23 07:17:00,
2017-02-23 01:22:00,45.0,39.2,29.72,NNE,27,5.8,5.8,80,0.00,OVC,SKC,0.00,0.0,WeatherDisplay:10.37,2017-02-23 07:22:00,
2017-02-23 01:27:00,44.6,38.8,29.71,NNE,23,4.2,4.2,80,0.00,OVC,SKC,0.00,0.0,WeatherDisplay:10.37,2017-02-23 07:27:00,
2017-02-23 01:32:00,44.4,38.9,29.71,NNE,25,4.6,4.6,81,0.00,OVC,SKC,0.00,0.0,WeatherDisplay:10.37,2017-02-23 07:32:00,
2017-02-23 01:37:00,44.1,38.6,29.71,NNW,333,4.6,4.6,81,0.00,OVC,SKC,0.00,0.0,WeatherDisplay:10.37,2017-02-23 07:37:00,
2017-02-23 01:38:00,44.0,38.5,29.71,NNE,29,5.3,5.3,81,0.00,OVC,SKC,0.00,0.0,WeatherDisplay:10.37,2017-02-23 07:38:00,
2017-02-23 01:43:00,43.9,38.8,29.71,NNE,22,6.9,6.9,82,0.00,OVC,SKC,0.00,0.0,WeatherDisplay:10.37,2017-02-23 07:43:00,
2017-02-23 01:48:00,43.7,38.6,29.70,NNE,13,5.8,5.8,82,0.00,OVC,SKC,0.00,0.0,WeatherDisplay:10.37,2017-02-23 07:48:00,
2017-02-23 01:53:00,43.6,38.5,29.71,NNE,25,5.8,5.8,82,0.00,OVC,SKC,0.00,0.0,WeatherDisplay:10.37,2017-02-23 07:53:00,
2017-02-23 01:58:00,43.6,38.5,29.71,NE,37,2.3,2.3,82,0.00,OVC,SKC,0.00,0.0,WeatherDisplay:10.37,2017-02-23 07:58:00,
2017-02-23 02:03:00,43.5,38.4,29.71,North,9,2.3,2.3,82,0.00,OVC,SKC,0.00,0.0,WeatherDisplay:10.37,2017-02-23 08:03:00,
2017-02-23 02:04:00,43.5,38.4,29.71,North,359,2.3,2.3,82,0.00,OVC,SKC,0.00,0.0,WeatherDisplay:10.37,2017-02-23 08:04:00,
2017-02-23 02:09:00,43.3,38.5,29.72,North,3,0.0,0.0,83,0.00,OVC,SKC,0.00,0.0,WeatherDisplay:10.37,2017-02-23 08:09:00,
2017-02-23 02:14:00,43.2,38.4,29.71,North,8,0.0,0.6,83,0.00,OVC,SKC,0.00,0.0,WeatherDisplay:10.37,2017-02-23 08:14:00,
2017-02-23 02:19:00,43.1,38.6,29.72,North,7,2.1,2.1,84,0.00,OVC,SKC,0.00,0.0,WeatherDisplay:10.37,2017-02-23 08:19:00,
2017-02-23 02:24:00,43.2,38.7,29.72,NNW,342,4.6,4.6,84,0.00,OVC,SKC,0.00,0.0,WeatherDisplay:10.37,2017-02-23 08:24:00,
2017-02-23 02:29:00,43.0,38.5,29.72,NW,326,0.0,0.0,84,0.00,OVC,SKC,0.00,0.0,WeatherDisplay:10.37,2017-02-23 08:29:00,
2017-02-23 02:34:00,42.8,38.3,29.72,North,352,1.2,1.2,84,0.00,OVC,SKC,0.00,0.0,WeatherDisplay:10.37,2017-02-23 08:34:00,
2017-02-23 02:39:00,42.7,38.5,29.72,North,355,4.6,4.6,85,0.00,OVC,SKC,0.00,0.0,WeatherDisplay:10.37,2017-02-23 08:39:00,
2017-02-23 02:44:00,42.7,38.5,29.72,North,352,6.9,6.9,85,0.00,OVC,SKC,0.00,0.0,WeatherDisplay:10.37,2017-02-23 08:44:00,
2017-02-23 02:49:00,42.9,38.7,29.71,North,2,6.9,6.9,85,0.00,OVC,SKC,0.00,0.0,WeatherDisplay:10.37,2017-02-23 08:49:00,
2017-02-23 02:54:00,42.9,38.7,29.71,North,349,4.6,4.6,85,0.00,OVC,SKC,0.00,0.0,WeatherDisplay:10.37,2017-02-23 08:54:00,
2017-02-23 02:59:00,42.9,39.0,29.71,North,352,5.8,5.8,86,0.00,OVC,SKC,0.00,0.0,WeatherDisplay:10.37,2017-02-23 08:59:00,
2017-02-23 03:04:00,42.9,39.0,29.71,NNW,345,6.9,6.9,86,0.00,OVC,SKC,0.00,0.0,WeatherDisplay:10.37,2017-02-23 09:04:00,
2017-02-23 03:09:00,42.8,38.9,29.71,NNW,344,3.5,3.5,86,0.00,OVC,SKC,0.00,0.0,WeatherDisplay:10.37,2017-02-23 09:09:00,
2017-02-23 03:14:00,42.8,38.9,29.71,North,349,4.6,4.6,86,0.00,OVC,SKC,0.00,0.0,WeatherDisplay:10.37,2017-02-23 09:14:00,
2017-02-23 03:19:00,42.6,38.7,29.71,North,358,6.9,6.9,86,0.00,OVC,SKC,0.00,0.0,WeatherDisplay:10.37,2017-02-23 09:19:00,
2017-02-23 03:25:00,42.5,38.6,29.71,North,8,4.6,4.6,86,0.00,OVC,SKC,0.00,0.0,WeatherDisplay:10.37,2017-02-23 09:25:00,
2017-02-23 03:30:00,42.4,38.8,29.71,North,359,2.3,2.3,87,0.00,OVC,SKC,0.00,0.0,WeatherDisplay:10.37,2017-02-23 09:30:00,
2017-02-23 03:35:00,42.3,38.7,29.71,NNW,338,3.5,3.5,87,0.00,OVC,SKC,0.00,0.0,WeatherDisplay:10.37,2017-02-23 09:35:00,
2017-02-23 03:40:00,42.1,38.5,29.70,NNE,18,6.9,6.9,87,0.00,OVC,SKC,0.00,0.0,WeatherDisplay:10.37,2017-02-23 09:40:00,
2017-02-23 03:45:00,42.0,38.4,29.70,NNE,18,2.3,2.3,87,0.00,OVC,SKC,0.00,0.0,WeatherDisplay:10.37,2017-02-23 09:45:00,
2017-02-23 03:50:00,41.7,38.4,29.71,North,4,0.0,0.0,88,0.00,OVC,SKC,0.00,0.0,WeatherDisplay:10.37,2017-02-23 09:50:00,
2017-02-23 03:55:00,41.7,38.4,29.71,North,357,4.6,4.6,88,0.00,OVC,SKC,0.00,0.0,WeatherDisplay:10.37,2017-02-23 09:55:00,
2017-02-23 04:00:00,41.6,38.3,29.71,NNE,12,2.3,2.3,88,0.00,OVC,SKC,0.00,0.0,WeatherDisplay:10.37,2017-02-23 10:00:00,
2017-02-23 04:05:00,41.5,38.5,29.72,North,358,2.3,2.3,89,0.00,OVC,SKC,0.00,0.0,WeatherDisplay:10.37,2017-02-23 10:05:00,
2017-02-23 04:10:00,41.5,38.2,29.72,NNW,344,2.3,2.3,88,0.00,OVC,SKC,0.00,0.0,WeatherDisplay:10.37,2017-02-23 10:10:00,
2017-02-23 04:15:00,41.4,38.1,29.72,NNW,338,1.1,1.1,88,0.00,OVC,SKC,0.00,0.0,WeatherDisplay:10.37,2017-02-23 10:15:00,
2017-02-23 04:20:00,41.4,38.1,29.72,North,4,6.9,6.9,88,0.00,OVC,SKC,0.00,0.0,WeatherDisplay:10.37,2017-02-23 10:20:00,
2017-02-23 04:25:00,41.3,37.7,29.72,NNE,30,3.5,3.5,87,0.00,OVC,SKC,0.00,0.0,WeatherDisplay:10.37,2017-02-23 10:25:00,
2017-02-23 04:30:00,41.4,37.8,29.72,NNE,13,8.1,8.1,87,0.00,OVC,SKC,0.00,0.0,WeatherDisplay:10.37,2017-02-23 10:30:00,
2017-02-23 04:35:00,41.4,37.5,29.73,North,359,9.2,9.2,86,0.00,OVC,SKC,0.00,0.0,WeatherDisplay:10.37,2017-02-23 10:35:00,
2017-02-23 04:40:00,41.4,37.5,29.73,NNE,20,6.9,6.9,86,0.00,OVC,SKC,0.00,0.0,WeatherDisplay:10.37,2017-02-23 10:40:00,
2017-02-23 04:45:00,41.5,37.3,29.73,NNW,341,11.7,11.7,85,0.00,OVC,SKC,0.00,0.0,WeatherDisplay:10.37,2017-02-23 10:45:00,
2017-02-23 04:50:00,41.4,37.2,29.73,North,4,10.4,10.4,85,0.00,OVC,SKC,0.00,0.0,WeatherDisplay:10.37,2017-02-23 10:50:00,
2017-02-23 04:55:00,41.3,37.1,29.73,NNE,18,8.5,8.5,85,0.00,OVC,SKC,0.00,0.0,WeatherDisplay:10.37,2017-02-23 10:55:00,
2017-02-23 05:00:00,41.2,37.0,29.73,NNE,15,5.8,5.8,85,0.00,OVC,SKC,0.00,0.0,WeatherDisplay:10.37,2017-02-23 11:00:00,
2017-02-23 05:05:00,40.9,37.0,29.73,NE,35,6.9,6.9,86,0.00,OVC,SKC,0.00,0.0,WeatherDisplay:10.37,2017-02-23 11:05:00,
2017-02-23 05:10:00,40.8,36.9,29.73,NNE,17,6.9,6.9,86,0.00,OVC,SKC,0.00,0.0,WeatherDisplay:10.37,2017-02-23 11:10:00,
2017-02-23 05:15:00,40.6,36.7,29.73,NE,34,6.9,6.9,86,0.00,OVC,SKC,0.00,0.0,WeatherDisplay:10.37,2017-02-23 11:15:00,
2017-02-23 05:20:00,40.2,36.6,29.73,NNE,19,12.7,12.7,87,0.00,OVC,SKC,0.00,0.0,WeatherDisplay:10.37,2017-02-23 11:20:00,
2017-02-23 05:25:00,39.8,36.2,29.73,NNE,17,7.4,7.5,87,0.00,OVC,SKC,0.00,0.0,WeatherDisplay:10.37,2017-02-23 11:25:00,
2017-02-23 05:30:00,39.3,36.0,29.74,NE,56,12.7,12.7,88,0.00,OVC,SKC,0.00,0.0,WeatherDisplay:10.37,2017-02-23 11:30:00,
2017-02-23 05:35:00,39.1,36.1,29.73,NNE,22,6.9,6.9,89,0.00,OVC,SKC,0.00,0.0,WeatherDisplay:10.37,2017-02-23 11:35:00,
2017-02-23 05:40:00,38.9,35.9,29.73,NE,39,12.7,12.7,89,0.00,OVC,SKC,0.00,0.0,WeatherDisplay:10.37,2017-02-23 11:40:00,
2017-02-23 05:45:00,38.7,35.7,29.73,North,359,11.5,11.5,89,0.00,OVC,SKC,0.00,0.0,WeatherDisplay:10.37,2017-02-23 11:45:00,
2017-02-23 05:50:00,38.4,35.4,29.74,NNE,26,10.4,10.4,89,0.00,OVC,SKC,0.00,0.0,WeatherDisplay:10.37,2017-02-23 11:50:00,
2017-02-23 05:55:00,38.3,35.6,29.74,NE,37,6.9,6.9,90,0.00,OVC,SKC,0.00,0.0,WeatherDisplay:10.37,2017-02-23 11:55:00,
2017-02-23 06:00:00,38.1,35.4,29.74,NNE,30,8.1,8.1,90,0.00,OVC,SKC,0.00,0.0,WeatherDisplay:10.37,2017-02-23 12:00:00,
2017-02-23 06:05:00,38.0,35.3,29.74,NE,39,6.9,6.9,90,0.00,OVC,SKC,0.00,0.0,WeatherDisplay:10.37,2017-02-23 12:05:00,
2017-02-23 06:10:00,38.0,35.6,29.74,NNE,27,12.7,12.7,91,0.00,OVC,SKC,0.00,0.0,WeatherDisplay:10.37,2017-02-23 12:10:00,
2017-02-23 06:15:00,38.1,35.7,29.73,NE,49,9.5,9.5,91,0.00,OVC,SKC,0.00,0.0,WeatherDisplay:10.37,2017-02-23 12:15:00,
2017-02-23 06:20:00,38.1,35.7,29.74,NE,38,13.8,13.8,91,0.00,OVC,SKC,0.00,0.0,WeatherDisplay:10.37,2017-02-23 12:20:00,
2017-02-23 06:25:00,38.1,35.7,29.74,NE,45,9.2,9.2,91,0.00,OVC,SKC,0.00,0.0,WeatherDisplay:10.37,2017-02-23 12:25:00,
2017-02-23 06:31:00,38.2,35.8,29.73,NNE,20,8.1,8.1,91,0.00,OVC,SKC,0.00,0.0,WeatherDisplay:10.37,2017-02-23 12:31:00,
2017-02-23 06:36:00,38.3,35.9,29.74,NE,44,10.4,10.4,91,0.00,OVC,SKC,0.00,0.0,WeatherDisplay:10.37,2017-02-23 12:36:00,
2017-02-23 06:41:00,38.3,35.9,29.74,NNE,13,8.1,8.1,91,0.00,OVC,SKC,0.00,0.0,WeatherDisplay:10.37,2017-02-23 12:41:00,
2017-02-23 06:46:00,38.4,36.0,29.73,NE,46,8.1,8.1,91,0.00,OVC,SKC,0.00,0.0,WeatherDisplay:10.37,2017-02-23 12:46:00,